Bellona, NY (14415)

5:51 PM EDT on August 31, 2015 (GMT -0400)
Dresden | | Change Station
CLOSE
Current Station
Personal Weather Station
Location: Penn Yan, NY
Elevation: 636 ft
Nearby Weather Stations

Elev 636 ft 42.71 °N, 76.97 °W | Updated 2 seconds ago

Clear
Clear
81.6 °F
Feels Like 84 °F
N
3.0
Wind Variable Wind from WNW
Gusts 6.0 mph

Today
High -- | Low -- °F
--% Chance of Precip.
Yesterday
High -- | Low -- °F
Precip. -- in
6:31 AM 7:44 PM
Waning Gibbous, 93% visible
Pressure 30.00 in
Visibility 9.0 miles
Clouds Clear
Heat Index 84 °F
Dew Point 66 °F
Humidity 61%
Rainfall in
Snow Depth Not available.
UV 3 out of 12
Pollen 10.50 out of 12
Air Quality Not available.
Flu Activity Not available.
METAR KPEO 312053Z AUTO 28007KT 9SM CLR 28/18 A3002 RMK AO2 SLP159 T02830178 56006
Pressure 30.00 in
Visibility 9.0 miles
Clouds Clear
Heat Index 84 °F
Dew Point 66 °F
Humidity 61%
Rainfall in
Snow Depth Not available.
UV 3 out of 12
Pollen 10.50 out of 12
Air Quality Not available.
Flu Activity Not available.
METAR KPEO 312053Z AUTO 28007KT 9SM CLR 28/18 A3002 RMK AO2 SLP159 T02830178 56006

10-Day Weather Forecast

×

Almanac

Astronomy

Aug. 31, 2015 Rise Set
Actual Time
Civil Twilight
Nautical Twilight
Astronomical Twilight
Moon
Length of Visible Light
Length of Day
Tomorrow will be .
, % of the Moon is Illuminated

Today's Extremes

State Highs State Lows

Community

WunderPhotos

Upload Photos

1,851,377 photos uploaded!

WunderBlogs® & News

Nearby

Air Quality

  Air Quality AQ Index Pollutant
Not available.

Snow Depth

Station Depth Elevation

Earthquake Activity

City Distance Mag. Time & Date
Minimum magnitude displayed is 2.5.

Coastal Water Temperatures

Place Temperature

Stations

Nearby Weather Stations

Station Location Temp. Windchill Dew Point Humidity Wind Precip. Elev Updated Type